aviador You're here:

UUEE Decoded Metar

MOSCOW/SHEREMETYEVO in RUSSIA
Report Time2017-06-24 01:30:00
UTC Time2017-06-24 01:45:36
Flight Rules vfr VFR
Wind250° at 4 kt
W.Decomp.*RWY 25: 3.9 kt HW 0.7 kt LCW
W.Rank250° ranks 2
Current wind is below 250° avg. (9.1)
Visibility9999 m
Phenomena:N/A
Clouds:N/A
CeilingNone
Temp06°C (ISA -8)
Dew Point06°C (100% RH)
AAT3.6°C
QNH1005 hPa
Density Alt92 ft
Elevation623 ft
Report Wrong Elevation
Raw Report
METAR UUEE 240130Z 25002MPS CAVOK 06/06 Q1005 R24L/CLRD62 NOSIG=

Extra information for UUEE:More info

Metar Taf Metar & Taf Last 4 Metars F.Rules Stats Wind Profile Meteogram Temp Stats Airport Information Weather charts Add Link Nearby VenuesMetar ALERT Operation Metar Decoded Social comments